Terminal Aerodrome Forecast
Issued by NWS Cleveland, OH

Home | Current Version | Previous Version | Text Only | Print | Product List | Glossary On
Versions: 1 2 3 4 5 6 7 8 9 10 11 12 13 14 15 16 17 18 19 20 21
000
FTUS41 KCLE 281800 AAA
TAFMFD
TAF AMD
KMFD 281820Z 2818/2918 33015G22KT P6SM VCSH SCT035 BKN050
     FM290100 32005KT P6SM SCT030
     FM291500 27008KT P6SM BKN035=

USA.gov is the U.S. government's official web portal to all federal, state and local government web resources and services.